createdAt,value
2023-02-09T00:01:30.945Z,103117.13
2023-02-09T00:03:59.134Z,103127.13
2023-02-09T00:06:27.200Z,103120.78
2023-02-09T00:08:54.294Z,103122.06
2023-02-09T00:11:43.158Z,103128.50
2023-02-09T00:14:13.984Z,103124.00
2023-02-09T00:16:44.760Z,103114.37
2023-02-09T00:19:12.824Z,103125.91
2023-02-09T00:21:40.483Z,103112.69
2023-02-09T00:24:10.729Z,103123.84
2023-02-09T00:26:38.098Z,103134.34
2023-02-09T00:29:05.837Z,103107.25
2023-02-09T00:31:33.475Z,103123.72
2023-02-09T00:34:01.000Z,103124.34
2023-02-09T00:36:28.238Z,103123.28
2023-02-09T00:38:55.284Z,103121.53
2023-02-09T00:41:42.272Z,103113.34
2023-02-09T00:44:11.070Z,103110.09
2023-02-09T00:46:38.102Z,103108.56
2023-02-09T00:49:05.592Z,103104.19
2023-02-09T00:51:32.860Z,103097.78
2023-02-09T00:53:59.826Z,103093.47
2023-02-09T00:56:26.773Z,103082.88
2023-02-09T00:58:53.898Z,103094.41
2023-02-09T01:01:20.868Z,103099.81
2023-02-09T01:03:47.933Z,103090.66
2023-02-09T01:06:15.057Z,103084.37
2023-02-09T01:08:42.040Z,103083.47
2023-02-09T01:11:14.666Z,103078.91
2023-02-09T01:13:43.268Z,103077.06
2023-02-09T01:16:13.882Z,103077.06
2023-02-09T01:18:42.279Z,103068.28
2023-02-09T01:21:14.854Z,103068.53
2023-02-09T01:23:42.374Z,103070.44
2023-02-09T01:26:12.132Z,103049.03
2023-02-09T01:28:39.917Z,103049.56
2023-02-09T01:31:17.559Z,103054.38
2023-02-09T01:33:44.592Z,103056.84
2023-02-09T01:36:11.504Z,103051.56
2023-02-09T01:38:38.450Z,103058.19
2023-02-09T01:41:05.641Z,102882.59
2023-02-09T01:43:55.848Z,103044.38
2023-02-09T01:46:25.480Z,103042.19
2023-02-09T01:48:59.175Z,103031.06
2023-02-09T01:51:27.273Z,103030.53
2023-02-09T01:53:54.522Z,103024.69
2023-02-09T01:56:28.485Z,103020.25
2023-02-09T01:58:56.018Z,102983.31
2023-02-09T02:01:23.777Z,103015.50
2023-02-09T02:03:51.909Z,103001.38
2023-02-09T02:06:19.786Z,102987.75
2023-02-09T02:08:53.658Z,103013.13
2023-02-09T02:11:22.331Z,103007.44
2023-02-09T02:13:49.921Z,102999.13
2023-02-09T02:16:42.169Z,103011.41
2023-02-09T02:19:21.094Z,102998.09
2023-02-09T02:22:16.193Z,103004.16
2023-02-09T02:24:52.029Z,102995.06
2023-02-09T02:27:33.975Z,102994.66
2023-02-09T02:30:17.734Z,102997.53
2023-02-09T02:32:51.123Z,103002.53
2023-02-09T02:35:17.985Z,103002.53
2023-02-09T02:37:48.081Z,103001.34
2023-02-09T02:40:30.413Z,103009.44
2023-02-09T02:43:22.183Z,102985.97
2023-02-09T02:46:11.152Z,102999.78
2023-02-09T02:48:44.244Z,103003.06
2023-02-09T02:51:28.518Z,103004.62
2023-02-09T02:54:01.994Z,103002.16
2023-02-09T02:56:40.023Z,103004.53
2023-02-09T02:59:12.719Z,102980.69
2023-02-09T03:02:11.726Z,103012.87
2023-02-09T03:04:40.707Z,103008.44
2023-02-09T03:07:08.504Z,103014.59
2023-02-09T03:09:35.648Z,103015.50
2023-02-09T03:12:16.476Z,102999.47
2023-02-09T03:14:59.493Z,103008.09
2023-02-09T03:17:59.024Z,103013.56
2023-02-09T03:20:28.205Z,103015.09
2023-02-09T03:23:00.086Z,103009.00
2023-02-09T03:25:32.020Z,103021.31
2023-02-09T03:28:14.688Z,103017.72
2023-02-09T03:30:44.961Z,103019.34
2023-02-09T03:33:21.115Z,103005.53
2023-02-09T03:35:54.925Z,103014.66
2023-02-09T03:38:21.870Z,103016.47
2023-02-09T03:40:48.813Z,103017.84
2023-02-09T03:43:16.004Z,103020.59
2023-02-09T03:45:42.912Z,103014.56
2023-02-09T03:48:09.909Z,103018.72
2023-02-09T03:50:37.971Z,103025.09
2023-02-09T03:53:08.190Z,103020.03
2023-02-09T03:55:35.870Z,103026.56
2023-02-09T03:58:02.874Z,103025.75
2023-02-09T04:00:31.602Z,103025.63
2023-02-09T04:02:59.854Z,103027.91
2023-02-09T04:05:26.869Z,103030.63
2023-02-09T04:07:53.856Z,103039.50
2023-02-09T04:10:22.963Z,103030.56
2023-02-09T04:12:53.162Z,103027.97
2023-02-09T04:15:20.128Z,103027.31
2023-02-09T04:17:47.909Z,103022.81
2023-02-09T04:20:17.630Z,103027.03
2023-02-09T04:22:45.780Z,103031.31
2023-02-09T04:25:12.671Z,103020.84
2023-02-09T04:27:39.708Z,103014.59
2023-02-09T04:30:11.059Z,103013.25
2023-02-09T04:32:39.131Z,103013.59
2023-02-09T04:35:06.547Z,103019.06
2023-02-09T04:37:33.452Z,103014.97
2023-02-09T04:40:00.875Z,103004.97
2023-02-09T04:42:27.857Z,103008.75
2023-02-09T04:44:54.743Z,103011.19
2023-02-09T04:47:21.594Z,103003.94
2023-02-09T04:49:48.622Z,103007.53
2023-02-09T04:52:16.420Z,103006.53
2023-02-09T04:54:43.285Z,103005.06
2023-02-09T04:57:28.702Z,102989.19
2023-02-09T04:59:55.757Z,102989.94
2023-02-09T05:02:22.741Z,102984.50
2023-02-09T05:04:49.889Z,103006.44
2023-02-09T05:07:16.745Z,102981.03
2023-02-09T05:09:44.640Z,102976.03
2023-02-09T05:12:11.935Z,103004.34
2023-02-09T05:14:38.996Z,103008.12
2023-02-09T05:17:05.876Z,103010.22
2023-02-09T05:19:32.860Z,102979.09
2023-02-09T05:21:59.830Z,103005.16
2023-02-09T05:24:26.788Z,103008.78
2023-02-09T05:26:53.669Z,103009.69
2023-02-09T05:29:22.224Z,103009.25
2023-02-09T05:31:49.261Z,103010.19
2023-02-09T05:34:16.263Z,102998.94
2023-02-09T05:36:43.299Z,102995.44
2023-02-09T05:39:10.260Z,102995.78
2023-02-09T05:41:55.928Z,103000.78
2023-02-09T05:44:22.997Z,103000.22
2023-02-09T05:46:49.950Z,102997.94
2023-02-09T05:49:16.870Z,102982.84
2023-02-09T05:51:43.796Z,102991.91
2023-02-09T05:54:10.843Z,102985.72
2023-02-09T05:56:38.167Z,103005.38
2023-02-09T05:59:05.253Z,103000.22
2023-02-09T06:01:32.675Z,103006.44
2023-02-09T06:03:59.522Z,102972.22
2023-02-09T06:06:26.356Z,103010.22
2023-02-09T06:08:53.298Z,102992.78
2023-02-09T06:11:20.676Z,103010.00
2023-02-09T06:13:47.653Z,103009.56
2023-02-09T06:16:14.529Z,103006.06
2023-02-09T06:18:41.446Z,103008.81
2023-02-09T06:21:08.491Z,103008.50
2023-02-09T06:23:35.516Z,103011.38
2023-02-09T06:26:06.810Z,103021.81
2023-02-09T06:28:33.839Z,103009.41
2023-02-09T06:31:01.203Z,103020.31
2023-02-09T06:33:28.544Z,103018.47
2023-02-09T06:35:55.489Z,103023.28
2023-02-09T06:38:22.504Z,103020.72
2023-02-09T06:40:50.084Z,103024.78
2023-02-09T06:43:17.669Z,103026.25
2023-02-09T06:45:44.631Z,103025.03
2023-02-09T06:48:11.517Z,103034.41
2023-02-09T06:50:39.168Z,102989.59
2023-02-09T06:53:06.923Z,103003.81
2023-02-09T06:55:34.491Z,103032.91
2023-02-09T06:58:02.357Z,103031.88
2023-02-09T07:00:31.722Z,102991.97
2023-02-09T07:02:59.626Z,103022.41
2023-02-09T07:05:27.044Z,103016.28
2023-02-09T07:07:56.476Z,103018.41
2023-02-09T07:10:23.529Z,103016.59
2023-02-09T07:12:50.672Z,103017.53
2023-02-09T07:15:17.837Z,103019.47
2023-02-09T07:17:45.079Z,103003.97
2023-02-09T07:20:12.517Z,103014.00
2023-02-09T07:22:40.997Z,103009.09
2023-02-09T07:25:08.305Z,103010.69
2023-02-09T07:27:35.387Z,103006.44
2023-02-09T07:30:02.746Z,103008.12
2023-02-09T07:32:34.088Z,103009.84
2023-02-09T07:35:01.167Z,102973.59
2023-02-09T07:37:28.081Z,103015.75
2023-02-09T07:39:56.649Z,102979.50
2023-02-09T07:42:24.869Z,103007.09
2023-02-09T07:44:51.775Z,103004.66
2023-02-09T07:47:18.749Z,102997.78
2023-02-09T07:49:46.004Z,102996.16
2023-02-09T07:52:12.900Z,102990.84
2023-02-09T07:54:39.799Z,102993.25
2023-02-09T07:57:06.682Z,102988.59
2023-02-09T07:59:34.197Z,102992.69
2023-02-09T08:02:01.293Z,102975.66
2023-02-09T08:04:28.161Z,102963.09
2023-02-09T08:06:55.286Z,102984.06
2023-02-09T08:09:22.305Z,102968.84
2023-02-09T08:12:08.277Z,102993.69
2023-02-09T08:14:42.960Z,102984.38
2023-02-09T08:17:20.456Z,102973.22
2023-02-09T08:19:56.569Z,102949.97
2023-02-09T08:22:25.090Z,102982.87
2023-02-09T08:24:52.631Z,102988.75
2023-02-09T08:27:19.700Z,102958.81
2023-02-09T08:30:07.239Z,102976.75
2023-02-09T08:32:54.082Z,102970.78
2023-02-09T08:35:21.062Z,102980.84
2023-02-09T08:37:48.092Z,102921.84
2023-02-09T08:40:15.245Z,102977.34
2023-02-09T08:42:42.150Z,102950.53
2023-02-09T08:45:09.876Z,102964.63
2023-02-09T08:47:36.840Z,102949.34
2023-02-09T08:50:03.900Z,102973.41
2023-02-09T08:52:31.286Z,102964.03
2023-02-09T08:54:58.141Z,102968.03
2023-02-09T08:57:38.193Z,102964.84
2023-02-09T09:00:10.570Z,102969.16
2023-02-09T09:02:37.562Z,102972.47
2023-02-09T09:05:04.695Z,102973.97
2023-02-09T09:07:31.598Z,102958.78
2023-02-09T09:09:58.718Z,102957.22
2023-02-09T09:12:25.697Z,102964.41
2023-02-09T09:14:52.657Z,102953.28
2023-02-09T09:17:19.585Z,102969.28
2023-02-09T09:19:46.637Z,102970.00
2023-02-09T09:22:13.532Z,102977.19
2023-02-09T09:24:43.216Z,102963.62
2023-02-09T09:27:10.816Z,102972.28
2023-02-09T09:29:40.092Z,102966.34
2023-02-09T09:32:08.222Z,102975.84
2023-02-09T09:34:35.142Z,102964.78
2023-02-09T09:37:01.982Z,102919.03
2023-02-09T09:39:28.904Z,102972.44
2023-02-09T09:41:59.816Z,102971.25
2023-02-09T09:44:34.884Z,102965.06
2023-02-09T09:47:08.762Z,102962.59
2023-02-09T09:49:37.291Z,102967.34
2023-02-09T09:52:15.769Z,102976.25
2023-02-09T09:54:44.071Z,102967.03
2023-02-09T09:57:24.472Z,102971.25
2023-02-09T09:59:53.053Z,102968.16
2023-02-09T10:02:30.267Z,102967.31
2023-02-09T10:05:10.436Z,102962.69
2023-02-09T10:07:38.859Z,102959.34
2023-02-09T10:10:21.279Z,102954.06
2023-02-09T10:12:51.152Z,102950.84
2023-02-09T10:15:19.319Z,102947.22
2023-02-09T10:17:46.167Z,102943.88
2023-02-09T10:20:13.539Z,102945.78
2023-02-09T10:22:44.836Z,102942.19
2023-02-09T10:25:39.105Z,102942.31
2023-02-09T10:28:06.630Z,102928.31
2023-02-09T10:30:34.136Z,102927.22
2023-02-09T10:33:02.423Z,102928.22
2023-02-09T10:35:36.522Z,102925.94
2023-02-09T10:38:04.179Z,102916.38
2023-02-09T10:40:33.799Z,102917.66
2023-02-09T10:43:10.323Z,102886.56
2023-02-09T10:45:44.620Z,102894.63
2023-02-09T10:48:11.660Z,102895.38
2023-02-09T10:50:50.812Z,102889.59
2023-02-09T10:53:33.036Z,102881.13
2023-02-09T10:56:40.493Z,102878.91
2023-02-09T10:59:25.339Z,102874.91
2023-02-09T11:02:02.275Z,102880.41
2023-02-09T11:04:39.998Z,102868.38
2023-02-09T11:07:13.513Z,102860.81
2023-02-09T11:09:48.504Z,102849.56
2023-02-09T11:12:15.476Z,102850.19
2023-02-09T11:14:43.250Z,102848.72
2023-02-09T11:17:36.546Z,102841.09
2023-02-09T11:20:12.133Z,102842.03
2023-02-09T11:23:23.295Z,102836.94
2023-02-09T11:25:53.084Z,102834.34
2023-02-09T11:28:55.148Z,102830.59
2023-02-09T11:32:03.966Z,102831.69
2023-02-09T11:34:37.959Z,102809.03
2023-02-09T11:37:16.455Z,102817.06
2023-02-09T11:39:51.401Z,102798.19
2023-02-09T11:42:45.145Z,102807.16
2023-02-09T11:45:30.896Z,102812.31
2023-02-09T11:47:58.356Z,102815.78
2023-02-09T11:50:39.250Z,102815.06
2023-02-09T11:53:16.190Z,102811.19
2023-02-09T11:55:49.768Z,102806.06
2023-02-09T11:58:47.630Z,102803.34
2023-02-09T12:01:44.601Z,102798.75
2023-02-09T12:04:26.444Z,102792.63
2023-02-09T12:07:00.458Z,102803.59
2023-02-09T12:09:55.751Z,102794.75
2023-02-09T12:12:29.194Z,102784.75
2023-02-09T12:15:05.629Z,102781.84
2023-02-09T12:17:38.124Z,102784.00
2023-02-09T12:20:19.997Z,102779.53
2023-02-09T12:22:57.894Z,102778.22
2023-02-09T12:26:00.138Z,102779.19
2023-02-09T12:28:27.298Z,102778.06
2023-02-09T12:30:58.988Z,102774.34
2023-02-09T12:33:25.827Z,102769.31
2023-02-09T12:36:08.472Z,102778.16
2023-02-09T12:38:56.844Z,102769.78
2023-02-09T12:41:30.209Z,102753.88
2023-02-09T12:44:06.034Z,102765.44
2023-02-09T12:46:34.095Z,102756.34
2023-02-09T12:49:00.965Z,102757.81
2023-02-09T12:51:39.737Z,102754.22
2023-02-09T12:54:31.020Z,102755.03
2023-02-09T12:57:16.322Z,102747.44
2023-02-09T12:59:52.727Z,102747.19
2023-02-09T13:02:37.648Z,102747.84
2023-02-09T13:05:23.403Z,102740.16
2023-02-09T13:08:15.972Z,102726.69
2023-02-09T13:11:06.907Z,102734.22
2023-02-09T13:13:53.727Z,102587.09
2023-02-09T13:16:30.983Z,102728.28
2023-02-09T13:19:39.189Z,102711.94
2023-02-09T13:22:29.105Z,102722.47
2023-02-09T13:25:00.849Z,102715.16
2023-02-09T13:27:29.723Z,102716.66
2023-02-09T13:29:58.681Z,102714.28
2023-02-09T13:32:47.875Z,102719.81
2023-02-09T13:35:29.387Z,102701.22
2023-02-09T13:37:58.947Z,102713.22
2023-02-09T13:40:31.530Z,102695.25
2023-02-09T13:43:17.312Z,102709.19
2023-02-09T13:46:02.876Z,102701.06
2023-02-09T13:48:39.424Z,102699.19
2023-02-09T13:51:20.624Z,102698.94
2023-02-09T13:54:02.424Z,102685.97
2023-02-09T13:56:31.962Z,102698.50
2023-02-09T13:59:00.448Z,102699.03
2023-02-09T14:01:33.811Z,102690.16
2023-02-09T14:04:15.255Z,102701.56
2023-02-09T14:07:05.678Z,102698.13
2023-02-09T14:09:44.668Z,102698.94
2023-02-09T14:12:55.551Z,102689.84
2023-02-09T14:15:53.095Z,102694.41
2023-02-09T14:18:44.261Z,102686.78
2023-02-09T14:21:11.433Z,102685.56
2023-02-09T14:23:39.636Z,102687.44
2023-02-09T14:26:27.597Z,102686.41
2023-02-09T14:29:04.309Z,102688.34
2023-02-09T14:31:34.626Z,102690.63
2023-02-09T14:34:02.261Z,102681.31
2023-02-09T14:36:36.246Z,102689.00
2023-02-09T14:39:13.122Z,102685.84
2023-02-09T14:41:40.217Z,102680.63
2023-02-09T14:44:07.010Z,102674.44
2023-02-09T14:46:48.551Z,102683.75
2023-02-09T14:49:16.325Z,102696.03
2023-02-09T14:51:44.945Z,102689.22
2023-02-09T14:54:28.122Z,102679.97
2023-02-09T14:56:58.705Z,102681.81
2023-02-09T14:59:27.576Z,102682.59
2023-02-09T15:01:54.977Z,102681.34
2023-02-09T15:04:22.555Z,102679.38
2023-02-09T15:07:03.796Z,102681.00
2023-02-09T15:09:36.936Z,102675.56
2023-02-09T15:12:06.269Z,102678.53
2023-02-09T15:14:38.098Z,102672.12
2023-02-09T15:17:17.669Z,102674.06
2023-02-09T15:19:45.842Z,102675.72
2023-02-09T15:22:15.189Z,102672.94
2023-02-09T15:24:44.163Z,102671.22
2023-02-09T15:27:24.278Z,102666.97
2023-02-09T15:29:51.497Z,102659.53
2023-02-09T15:32:20.552Z,102676.50
2023-02-09T15:34:47.993Z,102662.53
2023-02-09T15:37:37.053Z,102678.84
2023-02-09T15:40:16.116Z,102680.34
2023-02-09T15:43:02.014Z,102673.81
2023-02-09T15:45:48.860Z,102666.41
2023-02-09T15:48:16.159Z,102669.34
2023-02-09T15:50:45.994Z,102673.47
2023-02-09T15:53:18.583Z,102682.34
2023-02-09T15:55:46.893Z,102679.91
2023-02-09T15:58:22.384Z,102678.91
2023-02-09T16:00:49.431Z,102680.87
2023-02-09T16:03:19.577Z,102674.72
2023-02-09T16:05:53.464Z,102666.94
2023-02-09T16:08:26.719Z,102675.44
2023-02-09T16:10:54.617Z,102677.47
2023-02-09T16:13:22.064Z,102681.28
2023-02-09T16:15:49.598Z,102674.88
2023-02-09T16:18:16.699Z,102672.25
2023-02-09T16:20:47.459Z,102672.94
2023-02-09T16:23:21.108Z,102675.25
2023-02-09T16:25:54.226Z,102672.72
2023-02-09T16:28:22.224Z,102665.38
2023-02-09T16:30:54.012Z,102675.75
2023-02-09T16:33:25.800Z,102682.03
2023-02-09T16:36:02.931Z,102676.03
2023-02-09T16:38:31.534Z,102681.00
2023-02-09T16:40:58.581Z,102675.13
2023-02-09T16:43:27.085Z,102678.66
2023-02-09T16:46:03.425Z,102680.87
2023-02-09T16:48:34.784Z,102675.38
2023-02-09T16:51:03.008Z,102676.28
2023-02-09T16:53:38.635Z,102681.19
2023-02-09T16:56:10.373Z,102683.06
2023-02-09T16:58:38.662Z,102684.44
2023-02-09T17:01:23.019Z,102673.72
2023-02-09T17:03:57.940Z,102680.31
2023-02-09T17:06:28.885Z,102675.53
2023-02-09T17:08:56.949Z,102658.94
2023-02-09T17:11:27.196Z,102675.97
2023-02-09T17:13:57.832Z,102679.16
2023-02-09T17:16:37.046Z,102677.72
2023-02-09T17:19:11.522Z,102668.97
2023-02-09T17:21:40.611Z,102673.47
2023-02-09T17:24:26.689Z,102678.25
2023-02-09T17:26:54.557Z,102675.28
2023-02-09T17:29:24.024Z,102673.84
2023-02-09T17:31:54.044Z,102672.06
2023-02-09T17:34:27.477Z,102675.28
2023-02-09T17:36:56.574Z,102683.00
2023-02-09T17:39:25.655Z,102668.88
2023-02-09T17:41:53.449Z,102673.44
2023-02-09T17:44:44.942Z,102679.56
2023-02-09T17:47:17.168Z,102669.56
2023-02-09T17:49:47.148Z,102682.41
2023-02-09T17:52:19.757Z,102668.44
2023-02-09T17:54:49.028Z,102673.97
2023-02-09T17:57:18.292Z,102663.69
2023-02-09T17:59:48.760Z,102683.47
2023-02-09T18:02:20.101Z,102682.44
2023-02-09T18:04:48.220Z,102684.59
2023-02-09T18:07:20.737Z,102681.69
2023-02-09T18:09:49.584Z,102676.09
2023-02-09T18:12:22.099Z,102691.37
2023-02-09T18:14:50.354Z,102691.25
2023-02-09T18:17:20.938Z,102684.94
2023-02-09T18:19:50.091Z,102693.50
2023-02-09T18:22:20.371Z,102690.28
2023-02-09T18:24:48.566Z,102695.41
2023-02-09T18:27:20.814Z,102695.41
2023-02-09T18:29:49.274Z,102692.50
2023-02-09T18:32:18.458Z,102693.31
2023-02-09T18:34:47.196Z,102693.59
2023-02-09T18:37:16.553Z,102666.94
2023-02-09T18:39:47.008Z,102697.72
2023-02-09T18:42:16.811Z,102698.22
2023-02-09T18:44:47.341Z,102700.53
2023-02-09T18:47:16.896Z,102510.03
2023-02-09T18:49:45.909Z,102696.69
2023-02-09T18:52:19.377Z,102706.22
2023-02-09T18:54:48.789Z,102700.78
2023-02-09T18:57:19.661Z,102704.37
2023-02-09T18:59:48.005Z,102699.78
2023-02-09T19:02:16.526Z,102681.44
2023-02-09T19:04:45.172Z,102687.34
2023-02-09T19:07:15.177Z,102687.22
2023-02-09T19:09:46.930Z,102691.75
2023-02-09T19:12:15.369Z,102689.84
2023-02-09T19:14:48.066Z,102694.44
2023-02-09T19:17:18.644Z,102686.19
2023-02-09T19:19:47.764Z,102685.88
2023-02-09T19:22:21.629Z,102690.56
2023-02-09T19:24:53.256Z,102700.16
2023-02-09T19:27:24.462Z,102692.72
2023-02-09T19:29:57.783Z,102690.28
2023-02-09T19:32:27.825Z,102686.03
2023-02-09T19:34:57.355Z,102699.69
2023-02-09T19:37:25.979Z,102700.97
2023-02-09T19:40:11.662Z,102674.00
2023-02-09T19:42:39.580Z,102681.41
2023-02-09T19:45:11.026Z,102696.34
2023-02-09T19:47:39.409Z,102705.19
2023-02-09T19:50:08.156Z,102709.50
2023-02-09T19:52:38.883Z,102666.34
2023-02-09T19:55:07.232Z,102719.41
2023-02-09T19:57:36.224Z,102714.22
2023-02-09T20:00:07.195Z,102720.09
2023-02-09T20:02:35.949Z,102719.53
2023-02-09T20:05:06.704Z,102723.69
2023-02-09T20:07:34.608Z,102728.22
2023-02-09T20:10:05.352Z,102714.13
2023-02-09T20:12:34.794Z,102721.22
2023-02-09T20:15:03.441Z,102704.41
2023-02-09T20:17:31.811Z,102709.94
2023-02-09T20:20:08.909Z,102689.62
2023-02-09T20:22:38.525Z,102697.63
2023-02-09T20:25:07.341Z,102701.25
2023-02-09T20:27:35.311Z,102699.44
2023-02-09T20:30:05.507Z,102698.00
2023-02-09T20:32:38.300Z,102700.69
2023-02-09T20:35:07.332Z,102674.72
2023-02-09T20:37:35.665Z,102694.47
2023-02-09T20:40:06.091Z,102683.19
2023-02-09T20:42:53.119Z,102682.50
2023-02-09T20:45:39.850Z,102688.47
2023-02-09T20:48:08.673Z,102683.72
2023-02-09T20:50:37.095Z,102675.72
2023-02-09T20:53:05.561Z,102668.91
2023-02-09T20:55:37.827Z,102681.31
2023-02-09T20:58:06.884Z,102683.56
2023-02-09T21:00:35.335Z,102684.03
2023-02-09T21:03:04.341Z,102682.34
2023-02-09T21:05:33.135Z,102678.06
2023-02-09T21:08:04.876Z,102688.34
2023-02-09T21:10:35.849Z,102684.94
2023-02-09T21:13:07.927Z,102492.59
2023-02-09T21:15:41.217Z,102680.34
2023-02-09T21:18:09.358Z,102670.69
2023-02-09T21:20:40.446Z,102681.22
2023-02-09T21:23:08.072Z,102697.16
2023-02-09T21:25:39.636Z,102700.03
2023-02-09T21:28:07.528Z,102674.16
2023-02-09T21:30:34.831Z,102700.25
2023-02-09T21:33:02.354Z,102684.97
2023-02-09T21:35:29.938Z,102712.22
2023-02-09T21:37:57.251Z,102709.53
2023-02-09T21:40:24.944Z,102710.12
2023-02-09T21:42:52.537Z,102716.66
2023-02-09T21:45:20.094Z,102709.62
2023-02-09T21:47:47.452Z,102713.31
2023-02-09T21:50:14.980Z,102705.97
2023-02-09T21:52:42.332Z,102677.03
2023-02-09T21:55:09.759Z,102705.09
2023-02-09T21:57:38.368Z,102699.50
2023-02-09T22:00:09.054Z,102691.28
2023-02-09T22:02:36.390Z,102688.19
2023-02-09T22:05:07.700Z,102694.03
2023-02-09T22:07:36.067Z,102679.09
2023-02-09T22:10:05.190Z,102686.22
2023-02-09T22:12:34.286Z,102653.03
2023-02-09T22:15:01.460Z,102687.87
2023-02-09T22:17:28.481Z,102688.06
2023-02-09T22:19:57.892Z,102692.81
2023-02-09T22:22:24.691Z,102691.53
2023-02-09T22:24:53.082Z,102687.63
2023-02-09T22:27:22.674Z,102697.53
2023-02-09T22:29:49.750Z,102688.47
2023-02-09T22:32:16.959Z,102684.78
2023-02-09T22:34:43.828Z,102694.19
2023-02-09T22:37:10.687Z,102692.28
2023-02-09T22:39:37.805Z,102678.19
2023-02-09T22:42:05.148Z,102695.78
2023-02-09T22:44:33.482Z,102693.84
2023-02-09T22:47:00.378Z,102695.63
2023-02-09T22:49:27.353Z,102695.88
2023-02-09T22:51:55.003Z,102686.34
2023-02-09T22:54:22.153Z,102694.53
2023-02-09T22:56:49.066Z,102697.13
2023-02-09T22:59:16.155Z,102701.66
2023-02-09T23:01:43.622Z,102685.09
2023-02-09T23:04:10.738Z,102689.12
2023-02-09T23:06:37.678Z,102693.75
2023-02-09T23:09:07.509Z,102686.81
2023-02-09T23:11:35.171Z,102681.25
2023-02-09T23:14:10.987Z,102680.63
2023-02-09T23:16:40.150Z,102680.22
2023-02-09T23:19:08.810Z,102678.03
2023-02-09T23:21:39.209Z,102684.37
2023-02-09T23:24:06.978Z,102670.19
2023-02-09T23:26:34.511Z,102659.44
2023-02-09T23:29:04.965Z,102665.91
2023-02-09T23:31:32.390Z,102670.56
2023-02-09T23:34:00.005Z,102667.06
2023-02-09T23:36:29.819Z,102667.72
2023-02-09T23:38:59.464Z,102668.66
2023-02-09T23:41:27.390Z,102679.72
2023-02-09T23:43:54.590Z,102681.56
2023-02-09T23:46:25.741Z,102678.31
2023-02-09T23:48:54.960Z,102638.28
2023-02-09T23:51:33.725Z,102687.47
2023-02-09T23:54:03.431Z,102686.34
2023-02-09T23:56:36.771Z,102688.81
2023-02-09T23:59:06.261Z,102690.75
